sensor_id;sensor_type;location;lat;lon;timestamp;P1;durP1;ratioP1;P2;durP2;ratioP2
81908;SDS011;71372;43.514;1.512;2024-01-27T00:02:00;60.15;;;23.75;;
81908;SDS011;71372;43.514;1.512;2024-01-27T00:04:26;52.92;;;20.42;;
81908;SDS011;71372;43.514;1.512;2024-01-27T00:06:52;57.10;;;23.17;;
81908;SDS011;71372;43.514;1.512;2024-01-27T00:09:18;56.45;;;21.90;;
81908;SDS011;71372;43.514;1.512;2024-01-27T00:11:44;54.30;;;21.38;;
81908;SDS011;71372;43.514;1.512;2024-01-27T00:14:10;60.58;;;22.25;;
81908;SDS011;71372;43.514;1.512;2024-01-27T00:16:37;54.92;;;20.92;;
81908;SDS011;71372;43.514;1.512;2024-01-27T00:19:02;61.83;;;22.23;;
81908;SDS011;71372;43.514;1.512;2024-01-27T00:21:28;67.22;;;22.77;;
81908;SDS011;71372;43.514;1.512;2024-01-27T00:23:54;76.75;;;22.50;;
81908;SDS011;71372;43.514;1.512;2024-01-27T00:26:26;74.28;;;22.15;;
81908;SDS011;71372;43.514;1.512;2024-01-27T00:28:52;73.07;;;21.23;;
81908;SDS011;71372;43.514;1.512;2024-01-27T00:31:19;66.28;;;21.10;;
81908;SDS011;71372;43.514;1.512;2024-01-27T00:33:45;75.45;;;21.35;;
81908;SDS011;71372;43.514;1.512;2024-01-27T00:36:11;72.38;;;19.50;;
81908;SDS011;71372;43.514;1.512;2024-01-27T00:38:37;70.63;;;17.83;;
81908;SDS011;71372;43.514;1.512;2024-01-27T00:41:04;67.68;;;17.92;;
81908;SDS011;71372;43.514;1.512;2024-01-27T00:43:30;54.67;;;17.30;;
81908;SDS011;71372;43.514;1.512;2024-01-27T00:45:56;75.70;;;16.90;;
81908;SDS011;71372;43.514;1.512;2024-01-27T00:48:22;83.32;;;19.88;;
81908;SDS011;71372;43.514;1.512;2024-01-27T00:50:48;56.72;;;16.77;;
81908;SDS011;71372;43.514;1.512;2024-01-27T00:53:14;61.65;;;16.58;;
81908;SDS011;71372;43.514;1.512;2024-01-27T00:55:40;62.13;;;16.70;;
81908;SDS011;71372;43.514;1.512;2024-01-27T00:58:06;48.05;;;14.27;;
81908;SDS011;71372;43.514;1.512;2024-01-27T01:00:33;43.53;;;12.48;;
81908;SDS011;71372;43.514;1.512;2024-01-27T01:02:59;44.00;;;13.27;;
81908;SDS011;71372;43.514;1.512;2024-01-27T01:05:25;44.42;;;14.40;;
81908;SDS011;71372;43.514;1.512;2024-01-27T01:07:51;44.47;;;12.57;;
81908;SDS011;71372;43.514;1.512;2024-01-27T01:10:16;43.90;;;12.27;;
81908;SDS011;71372;43.514;1.512;2024-01-27T01:12:42;36.75;;;11.55;;
81908;SDS011;71372;43.514;1.512;2024-01-27T01:15:08;43.08;;;11.30;;
81908;SDS011;71372;43.514;1.512;2024-01-27T01:17:34;43.55;;;12.10;;
81908;SDS011;71372;43.514;1.512;2024-01-27T01:20:00;33.50;;;11.35;;
81908;SDS011;71372;43.514;1.512;2024-01-27T01:22:27;35.67;;;10.98;;
81908;SDS011;71372;43.514;1.512;2024-01-27T01:24:53;37.92;;;11.60;;
81908;SDS011;71372;43.514;1.512;2024-01-27T01:27:19;48.00;;;13.50;;
81908;SDS011;71372;43.514;1.512;2024-01-27T01:29:46;47.33;;;13.20;;
81908;SDS011;71372;43.514;1.512;2024-01-27T01:32:12;35.53;;;10.70;;
81908;SDS011;71372;43.514;1.512;2024-01-27T01:34:38;32.13;;;9.40;;
81908;SDS011;71372;43.514;1.512;2024-01-27T01:37:04;39.42;;;9.73;;
81908;SDS011;71372;43.514;1.512;2024-01-27T01:39:30;37.95;;;10.80;;
81908;SDS011;71372;43.514;1.512;2024-01-27T01:41:56;39.20;;;11.65;;
81908;SDS011;71372;43.514;1.512;2024-01-27T01:44:22;38.03;;;11.05;;
81908;SDS011;71372;43.514;1.512;2024-01-27T01:46:55;38.60;;;11.65;;
81908;SDS011;71372;43.514;1.512;2024-01-27T01:49:21;31.63;;;10.00;;
81908;SDS011;71372;43.514;1.512;2024-01-27T01:51:47;33.55;;;9.98;;
81908;SDS011;71372;43.514;1.512;2024-01-27T01:54:14;32.83;;;10.00;;
81908;SDS011;71372;43.514;1.512;2024-01-27T01:56:40;32.38;;;10.30;;
81908;SDS011;71372;43.514;1.512;2024-01-27T01:59:07;33.55;;;11.15;;
81908;SDS011;71372;43.514;1.512;2024-01-27T02:01:33;34.78;;;8.95;;
81908;SDS011;71372;43.514;1.512;2024-01-27T02:03:59;28.88;;;8.23;;
81908;SDS011;71372;43.514;1.512;2024-01-27T02:06:25;36.70;;;9.38;;
81908;SDS011;71372;43.514;1.512;2024-01-27T02:08:51;32.28;;;10.68;;
81908;SDS011;71372;43.514;1.512;2024-01-27T02:11:17;25.35;;;8.32;;
81908;SDS011;71372;43.514;1.512;2024-01-27T02:13:43;32.20;;;8.38;;
81908;SDS011;71372;43.514;1.512;2024-01-27T02:16:09;26.80;;;9.30;;
81908;SDS011;71372;43.514;1.512;2024-01-27T02:18:35;29.98;;;9.57;;
81908;SDS011;71372;43.514;1.512;2024-01-27T02:21:01;32.63;;;9.57;;
81908;SDS011;71372;43.514;1.512;2024-01-27T02:23:27;41.03;;;9.73;;
81908;SDS011;71372;43.514;1.512;2024-01-27T02:25:53;31.42;;;10.13;;
81908;SDS011;71372;43.514;1.512;2024-01-27T02:28:19;24.83;;;8.40;;
81908;SDS011;71372;43.514;1.512;2024-01-27T02:30:45;33.95;;;8.45;;
81908;SDS011;71372;43.514;1.512;2024-01-27T02:33:11;35.58;;;8.18;;
81908;SDS011;71372;43.514;1.512;2024-01-27T02:35:37;25.23;;;7.72;;
81908;SDS011;71372;43.514;1.512;2024-01-27T02:38:03;34.80;;;8.93;;
81908;SDS011;71372;43.514;1.512;2024-01-27T02:40:29;26.02;;;8.45;;
81908;SDS011;71372;43.514;1.512;2024-01-27T02:42:55;46.05;;;7.53;;
81908;SDS011;71372;43.514;1.512;2024-01-27T02:45:21;22.88;;;7.35;;
81908;SDS011;71372;43.514;1.512;2024-01-27T02:47:47;20.33;;;6.97;;
81908;SDS011;71372;43.514;1.512;2024-01-27T02:50:13;20.52;;;6.72;;
81908;SDS011;71372;43.514;1.512;2024-01-27T02:52:39;24.45;;;6.68;;
81908;SDS011;71372;43.514;1.512;2024-01-27T02:55:05;22.60;;;6.90;;
81908;SDS011;71372;43.514;1.512;2024-01-27T02:57:31;20.65;;;6.35;;
81908;SDS011;71372;43.514;1.512;2024-01-27T02:59:57;25.95;;;7.30;;
81908;SDS011;71372;43.514;1.512;2024-01-27T03:02:23;23.50;;;7.97;;
81908;SDS011;71372;43.514;1.512;2024-01-27T03:04:49;20.08;;;7.25;;
81908;SDS011;71372;43.514;1.512;2024-01-27T03:07:15;16.27;;;6.00;;
81908;SDS011;71372;43.514;1.512;2024-01-27T03:09:41;18.40;;;6.75;;
81908;SDS011;71372;43.514;1.512;2024-01-27T03:12:07;22.00;;;6.80;;
81908;SDS011;71372;43.514;1.512;2024-01-27T03:14:33;26.58;;;7.07;;
81908;SDS011;71372;43.514;1.512;2024-01-27T03:16:59;31.02;;;7.93;;
81908;SDS011;71372;43.514;1.512;2024-01-27T03:19:25;32.38;;;6.57;;
81908;SDS011;71372;43.514;1.512;2024-01-27T03:21:51;49.40;;;7.15;;
81908;SDS011;71372;43.514;1.512;2024-01-27T03:24:17;48.03;;;7.90;;
81908;SDS011;71372;43.514;1.512;2024-01-27T03:26:43;43.38;;;7.60;;
81908;SDS011;71372;43.514;1.512;2024-01-27T03:29:09;42.90;;;8.00;;
81908;SDS011;71372;43.514;1.512;2024-01-27T03:31:34;46.38;;;7.35;;
81908;SDS011;71372;43.514;1.512;2024-01-27T03:34:01;75.00;;;8.48;;
81908;SDS011;71372;43.514;1.512;2024-01-27T03:36:28;37.15;;;7.22;;
81908;SDS011;71372;43.514;1.512;2024-01-27T03:38:56;28.63;;;7.85;;
81908;SDS011;71372;43.514;1.512;2024-01-27T03:41:23;43.55;;;7.82;;
81908;SDS011;71372;43.514;1.512;2024-01-27T03:43:49;42.92;;;7.15;;
81908;SDS011;71372;43.514;1.512;2024-01-27T03:46:15;22.42;;;6.30;;
81908;SDS011;71372;43.514;1.512;2024-01-27T03:48:41;25.75;;;6.95;;
81908;SDS011;71372;43.514;1.512;2024-01-27T03:51:08;40.92;;;7.07;;
81908;SDS011;71372;43.514;1.512;2024-01-27T03:53:34;63.03;;;9.10;;
81908;SDS011;71372;43.514;1.512;2024-01-27T03:55:59;42.70;;;7.53;;
81908;SDS011;71372;43.514;1.512;2024-01-27T03:58:29;31.48;;;7.88;;
81908;SDS011;71372;43.514;1.512;2024-01-27T04:00:56;34.72;;;7.03;;
81908;SDS011;71372;43.514;1.512;2024-01-27T04:03:23;45.13;;;7.72;;
81908;SDS011;71372;43.514;1.512;2024-01-27T04:05:49;37.13;;;7.63;;
81908;SDS011;71372;43.514;1.512;2024-01-27T04:08:15;24.60;;;6.88;;
81908;SDS011;71372;43.514;1.512;2024-01-27T04:10:41;40.30;;;7.80;;
81908;SDS011;71372;43.514;1.512;2024-01-27T04:13:06;34.50;;;8.82;;
81908;SDS011;71372;43.514;1.512;2024-01-27T04:15:33;26.02;;;6.80;;
81908;SDS011;71372;43.514;1.512;2024-01-27T04:18:04;36.50;;;7.35;;
81908;SDS011;71372;43.514;1.512;2024-01-27T04:20:33;36.63;;;7.40;;
81908;SDS011;71372;43.514;1.512;2024-01-27T04:23:00;34.30;;;7.22;;
81908;SDS011;71372;43.514;1.512;2024-01-27T04:25:26;32.53;;;7.07;;
81908;SDS011;71372;43.514;1.512;2024-01-27T04:27:52;57.42;;;6.63;;
81908;SDS011;71372;43.514;1.512;2024-01-27T04:30:18;61.72;;;7.70;;
81908;SDS011;71372;43.514;1.512;2024-01-27T04:32:45;58.35;;;7.47;;
81908;SDS011;71372;43.514;1.512;2024-01-27T04:35:11;60.65;;;6.80;;
81908;SDS011;71372;43.514;1.512;2024-01-27T04:37:37;47.80;;;6.82;;
81908;SDS011;71372;43.514;1.512;2024-01-27T04:40:07;56.95;;;6.18;;
81908;SDS011;71372;43.514;1.512;2024-01-27T04:42:33;70.70;;;6.60;;
81908;SDS011;71372;43.514;1.512;2024-01-27T04:45:00;56.50;;;6.10;;
81908;SDS011;71372;43.514;1.512;2024-01-27T04:47:26;46.78;;;6.90;;
81908;SDS011;71372;43.514;1.512;2024-01-27T04:49:52;24.30;;;5.93;;
81908;SDS011;71372;43.514;1.512;2024-01-27T04:52:18;48.85;;;6.78;;
81908;SDS011;71372;43.514;1.512;2024-01-27T04:54:44;40.30;;;5.43;;
81908;SDS011;71372;43.514;1.512;2024-01-27T04:57:09;43.33;;;5.60;;
81908;SDS011;71372;43.514;1.512;2024-01-27T04:59:35;41.90;;;5.75;;
81908;SDS011;71372;43.514;1.512;2024-01-27T05:02:01;28.52;;;5.53;;
81908;SDS011;71372;43.514;1.512;2024-01-27T05:04:27;53.75;;;8.13;;
81908;SDS011;71372;43.514;1.512;2024-01-27T05:06:53;27.73;;;4.70;;
81908;SDS011;71372;43.514;1.512;2024-01-27T05:09:19;31.42;;;3.97;;
81908;SDS011;71372;43.514;1.512;2024-01-27T05:11:45;41.60;;;4.60;;
81908;SDS011;71372;43.514;1.512;2024-01-27T05:14:11;20.38;;;4.75;;
81908;SDS011;71372;43.514;1.512;2024-01-27T05:16:37;30.95;;;3.88;;
81908;SDS011;71372;43.514;1.512;2024-01-27T05:19:03;17.75;;;3.75;;
81908;SDS011;71372;43.514;1.512;2024-01-27T05:21:29;21.23;;;3.85;;
81908;SDS011;71372;43.514;1.512;2024-01-27T05:23:55;19.27;;;4.28;;
81908;SDS011;71372;43.514;1.512;2024-01-27T05:26:21;30.98;;;4.18;;
81908;SDS011;71372;43.514;1.512;2024-01-27T05:28:47;17.77;;;3.80;;
81908;SDS011;71372;43.514;1.512;2024-01-27T05:31:13;19.10;;;4.57;;
81908;SDS011;71372;43.514;1.512;2024-01-27T05:33:38;24.80;;;4.25;;
81908;SDS011;71372;43.514;1.512;2024-01-27T05:36:07;26.95;;;6.28;;
81908;SDS011;71372;43.514;1.512;2024-01-27T05:38:33;33.72;;;4.07;;
81908;SDS011;71372;43.514;1.512;2024-01-27T05:41:02;26.40;;;4.03;;
81908;SDS011;71372;43.514;1.512;2024-01-27T05:43:28;20.58;;;4.38;;
81908;SDS011;71372;43.514;1.512;2024-01-27T05:45:55;15.77;;;3.63;;
81908;SDS011;71372;43.514;1.512;2024-01-27T05:48:21;17.00;;;3.25;;
81908;SDS011;71372;43.514;1.512;2024-01-27T05:50:56;14.27;;;3.83;;
81908;SDS011;71372;43.514;1.512;2024-01-27T05:53:26;15.60;;;4.28;;
81908;SDS011;71372;43.514;1.512;2024-01-27T05:55:52;16.88;;;3.75;;
81908;SDS011;71372;43.514;1.512;2024-01-27T05:58:19;12.75;;;3.30;;
81908;SDS011;71372;43.514;1.512;2024-01-27T06:00:49;17.65;;;3.45;;
81908;SDS011;71372;43.514;1.512;2024-01-27T06:03:15;17.55;;;3.38;;
81908;SDS011;71372;43.514;1.512;2024-01-27T06:05:42;17.13;;;4.10;;
81908;SDS011;71372;43.514;1.512;2024-01-27T06:08:08;7.40;;;3.17;;
81908;SDS011;71372;43.514;1.512;2024-01-27T06:10:35;14.23;;;3.42;;
81908;SDS011;71372;43.514;1.512;2024-01-27T06:13:04;9.98;;;3.65;;
81908;SDS011;71372;43.514;1.512;2024-01-27T06:15:30;12.95;;;3.45;;
81908;SDS011;71372;43.514;1.512;2024-01-27T06:17:56;10.02;;;3.10;;
81908;SDS011;71372;43.514;1.512;2024-01-27T06:20:23;12.50;;;3.60;;
81908;SDS011;71372;43.514;1.512;2024-01-27T06:22:49;10.82;;;3.45;;
81908;SDS011;71372;43.514;1.512;2024-01-27T06:25:15;12.43;;;3.50;;
81908;SDS011;71372;43.514;1.512;2024-01-27T06:27:42;12.38;;;2.90;;
81908;SDS011;71372;43.514;1.512;2024-01-27T06:30:08;9.45;;;2.90;;
81908;SDS011;71372;43.514;1.512;2024-01-27T06:32:36;18.20;;;2.80;;
81908;SDS011;71372;43.514;1.512;2024-01-27T06:35:03;11.00;;;2.25;;
81908;SDS011;71372;43.514;1.512;2024-01-27T06:37:29;12.80;;;2.30;;
81908;SDS011;71372;43.514;1.512;2024-01-27T06:39:55;15.18;;;2.20;;
81908;SDS011;71372;43.514;1.512;2024-01-27T06:42:21;5.93;;;2.15;;
81908;SDS011;71372;43.514;1.512;2024-01-27T06:44:47;9.85;;;2.40;;
81908;SDS011;71372;43.514;1.512;2024-01-27T06:47:13;8.60;;;3.10;;
81908;SDS011;71372;43.514;1.512;2024-01-27T06:49:39;9.20;;;2.50;;
81908;SDS011;71372;43.514;1.512;2024-01-27T06:52:05;10.77;;;2.42;;
81908;SDS011;71372;43.514;1.512;2024-01-27T06:54:31;9.70;;;2.30;;
81908;SDS011;71372;43.514;1.512;2024-01-27T06:56:59;6.82;;;2.63;;
81908;SDS011;71372;43.514;1.512;2024-01-27T06:59:26;14.20;;;2.85;;
81908;SDS011;71372;43.514;1.512;2024-01-27T07:01:52;7.43;;;2.65;;
81908;SDS011;71372;43.514;1.512;2024-01-27T07:04:18;10.40;;;2.60;;
81908;SDS011;71372;43.514;1.512;2024-01-27T07:06:44;14.35;;;2.88;;
81908;SDS011;71372;43.514;1.512;2024-01-27T07:09:10;12.70;;;2.83;;
81908;SDS011;71372;43.514;1.512;2024-01-27T07:11:36;6.53;;;3.00;;
81908;SDS011;71372;43.514;1.512;2024-01-27T07:14:03;8.32;;;3.30;;
81908;SDS011;71372;43.514;1.512;2024-01-27T07:16:32;13.70;;;3.30;;
81908;SDS011;71372;43.514;1.512;2024-01-27T07:18:59;11.18;;;2.60;;
81908;SDS011;71372;43.514;1.512;2024-01-27T07:21:25;13.77;;;3.28;;
81908;SDS011;71372;43.514;1.512;2024-01-27T07:23:52;8.65;;;2.10;;
81908;SDS011;71372;43.514;1.512;2024-01-27T07:26:19;19.08;;;3.22;;
81908;SDS011;71372;43.514;1.512;2024-01-27T07:28:45;9.27;;;3.10;;
81908;SDS011;71372;43.514;1.512;2024-01-27T07:31:11;6.47;;;2.95;;
81908;SDS011;71372;43.514;1.512;2024-01-27T07:33:38;22.17;;;2.53;;
81908;SDS011;71372;43.514;1.512;2024-01-27T07:36:04;7.00;;;2.90;;
81908;SDS011;71372;43.514;1.512;2024-01-27T07:38:30;5.57;;;2.95;;
81908;SDS011;71372;43.514;1.512;2024-01-27T07:40:56;9.20;;;1.95;;
81908;SDS011;71372;43.514;1.512;2024-01-27T07:43:23;5.25;;;2.20;;
81908;SDS011;71372;43.514;1.512;2024-01-27T07:48:18;5.72;;;2.33;;
81908;SDS011;71372;43.514;1.512;2024-01-27T07:50:44;5.90;;;2.72;;
81908;SDS011;71372;43.514;1.512;2024-01-27T07:53:14;4.65;;;2.45;;
81908;SDS011;71372;43.514;1.512;2024-01-27T07:55:40;12.65;;;2.58;;
81908;SDS011;71372;43.514;1.512;2024-01-27T07:58:06;11.55;;;3.13;;
81908;SDS011;71372;43.514;1.512;2024-01-27T08:00:32;9.13;;;2.72;;
81908;SDS011;71372;43.514;1.512;2024-01-27T08:02:58;15.02;;;3.03;;
81908;SDS011;71372;43.514;1.512;2024-01-27T08:05:24;13.35;;;2.88;;
81908;SDS011;71372;43.514;1.512;2024-01-27T08:07:50;9.98;;;2.08;;
81908;SDS011;71372;43.514;1.512;2024-01-27T08:10:16;10.55;;;2.10;;
81908;SDS011;71372;43.514;1.512;2024-01-27T08:12:42;8.60;;;2.42;;
81908;SDS011;71372;43.514;1.512;2024-01-27T08:15:08;10.88;;;2.58;;
81908;SDS011;71372;43.514;1.512;2024-01-27T08:17:34;14.43;;;2.10;;
81908;SDS011;71372;43.514;1.512;2024-01-27T08:20:01;20.00;;;2.88;;
81908;SDS011;71372;43.514;1.512;2024-01-27T08:22:27;17.55;;;2.72;;
81908;SDS011;71372;43.514;1.512;2024-01-27T08:24:54;24.92;;;3.38;;
81908;SDS011;71372;43.514;1.512;2024-01-27T08:27:20;30.50;;;3.28;;
81908;SDS011;71372;43.514;1.512;2024-01-27T08:29:46;81.45;;;4.60;;
81908;SDS011;71372;43.514;1.512;2024-01-27T08:32:12;35.08;;;3.33;;
81908;SDS011;71372;43.514;1.512;2024-01-27T08:34:38;20.45;;;2.30;;
81908;SDS011;71372;43.514;1.512;2024-01-27T08:37:13;22.55;;;3.35;;
81908;SDS011;71372;43.514;1.512;2024-01-27T08:39:40;13.77;;;2.90;;
81908;SDS011;71372;43.514;1.512;2024-01-27T08:42:06;19.02;;;2.80;;
81908;SDS011;71372;43.514;1.512;2024-01-27T08:44:32;19.52;;;3.58;;
81908;SDS011;71372;43.514;1.512;2024-01-27T08:46:58;29.15;;;2.90;;
81908;SDS011;71372;43.514;1.512;2024-01-27T08:49:24;34.05;;;3.33;;
81908;SDS011;71372;43.514;1.512;2024-01-27T08:51:50;14.38;;;3.08;;
81908;SDS011;71372;43.514;1.512;2024-01-27T08:54:16;15.63;;;3.38;;
81908;SDS011;71372;43.514;1.512;2024-01-27T08:56:42;18.58;;;4.10;;
81908;SDS011;71372;43.514;1.512;2024-01-27T08:59:08;17.85;;;4.55;;
81908;SDS011;71372;43.514;1.512;2024-01-27T09:01:34;23.20;;;5.88;;
81908;SDS011;71372;43.514;1.512;2024-01-27T09:04:00;16.30;;;4.75;;
81908;SDS011;71372;43.514;1.512;2024-01-27T09:06:26;24.17;;;5.75;;
81908;SDS011;71372;43.514;1.512;2024-01-27T09:08:52;18.13;;;6.03;;
81908;SDS011;71372;43.514;1.512;2024-01-27T09:11:18;14.40;;;5.93;;
81908;SDS011;71372;43.514;1.512;2024-01-27T09:13:44;22.52;;;4.68;;
81908;SDS011;71372;43.514;1.512;2024-01-27T09:16:11;15.00;;;5.32;;
81908;SDS011;71372;43.514;1.512;2024-01-27T09:18:39;16.63;;;4.85;;
81908;SDS011;71372;43.514;1.512;2024-01-27T09:21:05;21.60;;;4.07;;
81908;SDS011;71372;43.514;1.512;2024-01-27T09:23:31;8.15;;;3.53;;
81908;SDS011;71372;43.514;1.512;2024-01-27T09:25:57;13.15;;;3.83;;
81908;SDS011;71372;43.514;1.512;2024-01-27T09:28:24;17.10;;;3.75;;
81908;SDS011;71372;43.514;1.512;2024-01-27T09:30:52;13.07;;;3.13;;
81908;SDS011;71372;43.514;1.512;2024-01-27T09:33:18;21.20;;;3.75;;
81908;SDS011;71372;43.514;1.512;2024-01-27T09:35:47;9.68;;;3.15;;
81908;SDS011;71372;43.514;1.512;2024-01-27T09:38:13;4.38;;;2.53;;
81908;SDS011;71372;43.514;1.512;2024-01-27T09:40:40;10.20;;;2.80;;
81908;SDS011;71372;43.514;1.512;2024-01-27T09:43:06;5.95;;;3.47;;
81908;SDS011;71372;43.514;1.512;2024-01-27T09:45:38;8.90;;;3.50;;
81908;SDS011;71372;43.514;1.512;2024-01-27T09:48:05;12.00;;;2.97;;
81908;SDS011;71372;43.514;1.512;2024-01-27T09:50:34;9.38;;;2.70;;
81908;SDS011;71372;43.514;1.512;2024-01-27T09:53:00;12.93;;;2.63;;
81908;SDS011;71372;43.514;1.512;2024-01-27T09:55:26;8.82;;;2.70;;
81908;SDS011;71372;43.514;1.512;2024-01-27T09:57:52;8.13;;;2.60;;
81908;SDS011;71372;43.514;1.512;2024-01-27T10:00:19;5.45;;;2.33;;
81908;SDS011;71372;43.514;1.512;2024-01-27T10:02:45;7.53;;;2.25;;
81908;SDS011;71372;43.514;1.512;2024-01-27T10:05:14;4.47;;;2.13;;
81908;SDS011;71372;43.514;1.512;2024-01-27T10:07:42;7.97;;;2.60;;
81908;SDS011;71372;43.514;1.512;2024-01-27T10:10:08;3.55;;;2.33;;
81908;SDS011;71372;43.514;1.512;2024-01-27T10:12:35;3.03;;;1.90;;
81908;SDS011;71372;43.514;1.512;2024-01-27T10:15:20;5.97;;;2.83;;
81908;SDS011;71372;43.514;1.512;2024-01-27T10:17:47;4.32;;;2.60;;
81908;SDS011;71372;43.514;1.512;2024-01-27T10:20:13;14.48;;;2.58;;
81908;SDS011;71372;43.514;1.512;2024-01-27T10:22:41;6.35;;;2.30;;
81908;SDS011;71372;43.514;1.512;2024-01-27T10:25:08;14.63;;;2.78;;
81908;SDS011;71372;43.514;1.512;2024-01-27T10:27:37;26.15;;;3.03;;
81908;SDS011;71372;43.514;1.512;2024-01-27T10:30:04;17.38;;;3.22;;
81908;SDS011;71372;43.514;1.512;2024-01-27T10:32:31;14.77;;;2.80;;
81908;SDS011;71372;43.514;1.512;2024-01-27T10:35:04;7.50;;;3.40;;
81908;SDS011;71372;43.514;1.512;2024-01-27T10:37:31;7.13;;;2.85;;
81908;SDS011;71372;43.514;1.512;2024-01-27T10:40:00;22.02;;;3.13;;
81908;SDS011;71372;43.514;1.512;2024-01-27T10:42:30;8.77;;;3.00;;
81908;SDS011;71372;43.514;1.512;2024-01-27T10:44:59;11.50;;;3.45;;
81908;SDS011;71372;43.514;1.512;2024-01-27T10:47:29;6.85;;;3.13;;
81908;SDS011;71372;43.514;1.512;2024-01-27T10:49:56;7.50;;;2.83;;
81908;SDS011;71372;43.514;1.512;2024-01-27T10:52:29;5.40;;;2.80;;
81908;SDS011;71372;43.514;1.512;2024-01-27T10:54:58;7.72;;;2.78;;
81908;SDS011;71372;43.514;1.512;2024-01-27T10:57:29;3.67;;;2.60;;
81908;SDS011;71372;43.514;1.512;2024-01-27T10:59:56;11.95;;;2.78;;
81908;SDS011;71372;43.514;1.512;2024-01-27T11:02:23;11.32;;;4.65;;
81908;SDS011;71372;43.514;1.512;2024-01-27T11:04:50;8.45;;;2.83;;
81908;SDS011;71372;43.514;1.512;2024-01-27T11:07:19;12.65;;;3.40;;
81908;SDS011;71372;43.514;1.512;2024-01-27T11:09:48;6.22;;;3.15;;
81908;SDS011;71372;43.514;1.512;2024-01-27T11:12:18;8.23;;;3.67;;
81908;SDS011;71372;43.514;1.512;2024-01-27T11:14:46;4.88;;;2.95;;
81908;SDS011;71372;43.514;1.512;2024-01-27T11:17:13;4.47;;;3.47;;
81908;SDS011;71372;43.514;1.512;2024-01-27T11:19:41;4.95;;;3.13;;
81908;SDS011;71372;43.514;1.512;2024-01-27T11:22:07;6.35;;;3.20;;
81908;SDS011;71372;43.514;1.512;2024-01-27T11:24:34;4.65;;;3.55;;
81908;SDS011;71372;43.514;1.512;2024-01-27T11:27:03;5.18;;;3.65;;
81908;SDS011;71372;43.514;1.512;2024-01-27T11:29:30;8.43;;;3.47;;
81908;SDS011;71372;43.514;1.512;2024-01-27T11:34:43;4.93;;;3.28;;
81908;SDS011;71372;43.514;1.512;2024-01-27T11:37:10;6.88;;;4.07;;
81908;SDS011;71372;43.514;1.512;2024-01-27T11:42:06;4.13;;;3.20;;
81908;SDS011;71372;43.514;1.512;2024-01-27T11:44:37;4.47;;;2.83;;
81908;SDS011;71372;43.514;1.512;2024-01-27T11:47:03;4.43;;;3.22;;
81908;SDS011;71372;43.514;1.512;2024-01-27T11:49:30;6.85;;;3.10;;
81908;SDS011;71372;43.514;1.512;2024-01-27T11:51:56;4.15;;;3.00;;
81908;SDS011;71372;43.514;1.512;2024-01-27T11:54:23;5.32;;;3.50;;
81908;SDS011;71372;43.514;1.512;2024-01-27T11:56:49;5.00;;;3.20;;
81908;SDS011;71372;43.514;1.512;2024-01-27T11:59:15;4.68;;;3.42;;
81908;SDS011;71372;43.514;1.512;2024-01-27T12:01:41;7.07;;;4.15;;
81908;SDS011;71372;43.514;1.512;2024-01-27T12:04:07;5.70;;;3.92;;
81908;SDS011;71372;43.514;1.512;2024-01-27T12:06:34;5.68;;;3.97;;
81908;SDS011;71372;43.514;1.512;2024-01-27T12:09:01;9.48;;;4.50;;
81908;SDS011;71372;43.514;1.512;2024-01-27T12:11:27;8.18;;;4.38;;
81908;SDS011;71372;43.514;1.512;2024-01-27T12:13:53;7.85;;;4.72;;
81908;SDS011;71372;43.514;1.512;2024-01-27T12:16:21;9.07;;;4.53;;
81908;SDS011;71372;43.514;1.512;2024-01-27T12:18:50;6.88;;;4.75;;
81908;SDS011;71372;43.514;1.512;2024-01-27T12:21:20;5.95;;;4.53;;
81908;SDS011;71372;43.514;1.512;2024-01-27T12:23:53;7.80;;;4.60;;
81908;SDS011;71372;43.514;1.512;2024-01-27T12:26:20;6.45;;;4.10;;
81908;SDS011;71372;43.514;1.512;2024-01-27T12:28:56;6.20;;;4.30;;
81908;SDS011;71372;43.514;1.512;2024-01-27T12:31:26;7.03;;;4.90;;
81908;SDS011;71372;43.514;1.512;2024-01-27T12:33:54;7.85;;;5.43;;
81908;SDS011;71372;43.514;1.512;2024-01-27T12:36:21;8.05;;;4.88;;
81908;SDS011;71372;43.514;1.512;2024-01-27T12:38:53;7.32;;;4.50;;
81908;SDS011;71372;43.514;1.512;2024-01-27T12:41:26;6.40;;;4.68;;
81908;SDS011;71372;43.514;1.512;2024-01-27T12:43:53;5.80;;;3.78;;
81908;SDS011;71372;43.514;1.512;2024-01-27T12:46:19;8.27;;;5.25;;
81908;SDS011;71372;43.514;1.512;2024-01-27T12:48:45;8.57;;;5.35;;
81908;SDS011;71372;43.514;1.512;2024-01-27T12:51:11;8.52;;;5.78;;
81908;SDS011;71372;43.514;1.512;2024-01-27T12:53:38;8.50;;;5.82;;
81908;SDS011;71372;43.514;1.512;2024-01-27T12:56:08;9.35;;;5.60;;
81908;SDS011;71372;43.514;1.512;2024-01-27T12:58:34;8.88;;;5.80;;
81908;SDS011;71372;43.514;1.512;2024-01-27T13:01:00;9.50;;;5.80;;
81908;SDS011;71372;43.514;1.512;2024-01-27T13:03:26;8.73;;;5.70;;
81908;SDS011;71372;43.514;1.512;2024-01-27T13:05:53;8.27;;;5.35;;
81908;SDS011;71372;43.514;1.512;2024-01-27T13:08:20;8.40;;;5.43;;
81908;SDS011;71372;43.514;1.512;2024-01-27T13:10:47;9.48;;;6.15;;
81908;SDS011;71372;43.514;1.512;2024-01-27T13:13:13;9.32;;;6.45;;
81908;SDS011;71372;43.514;1.512;2024-01-27T13:15:39;8.80;;;5.95;;
81908;SDS011;71372;43.514;1.512;2024-01-27T13:18:05;9.00;;;5.60;;
81908;SDS011;71372;43.514;1.512;2024-01-27T13:20:31;8.35;;;5.47;;
81908;SDS011;71372;43.514;1.512;2024-01-27T13:23:00;6.38;;;5.10;;
81908;SDS011;71372;43.514;1.512;2024-01-27T13:25:26;8.10;;;5.35;;
81908;SDS011;71372;43.514;1.512;2024-01-27T13:27:52;8.10;;;5.07;;
81908;SDS011;71372;43.514;1.512;2024-01-27T13:30:18;7.97;;;4.95;;
81908;SDS011;71372;43.514;1.512;2024-01-27T13:32:44;10.60;;;4.97;;
81908;SDS011;71372;43.514;1.512;2024-01-27T13:35:10;7.78;;;5.20;;
81908;SDS011;71372;43.514;1.512;2024-01-27T13:37:36;6.85;;;4.78;;
81908;SDS011;71372;43.514;1.512;2024-01-27T13:40:03;6.22;;;4.68;;
81908;SDS011;71372;43.514;1.512;2024-01-27T13:42:30;7.70;;;4.82;;
81908;SDS011;71372;43.514;1.512;2024-01-27T13:44:56;6.50;;;5.25;;
81908;SDS011;71372;43.514;1.512;2024-01-27T13:47:22;7.97;;;5.28;;
81908;SDS011;71372;43.514;1.512;2024-01-27T13:49:48;6.80;;;5.20;;
81908;SDS011;71372;43.514;1.512;2024-01-27T13:52:14;8.82;;;5.97;;
81908;SDS011;71372;43.514;1.512;2024-01-27T13:54:40;6.45;;;5.25;;
81908;SDS011;71372;43.514;1.512;2024-01-27T13:57:06;7.18;;;5.25;;
81908;SDS011;71372;43.514;1.512;2024-01-27T13:59:33;7.13;;;5.32;;
81908;SDS011;71372;43.514;1.512;2024-01-27T14:01:59;7.90;;;5.25;;
81908;SDS011;71372;43.514;1.512;2024-01-27T14:04:25;7.05;;;5.18;;
81908;SDS011;71372;43.514;1.512;2024-01-27T14:06:51;6.60;;;5.35;;
81908;SDS011;71372;43.514;1.512;2024-01-27T14:09:19;7.57;;;5.18;;
81908;SDS011;71372;43.514;1.512;2024-01-27T14:11:46;7.82;;;5.75;;
81908;SDS011;71372;43.514;1.512;2024-01-27T14:14:12;7.13;;;4.93;;
81908;SDS011;71372;43.514;1.512;2024-01-27T14:16:38;7.88;;;5.45;;
81908;SDS011;71372;43.514;1.512;2024-01-27T14:19:05;6.68;;;5.10;;
81908;SDS011;71372;43.514;1.512;2024-01-27T14:21:32;6.30;;;5.20;;
81908;SDS011;71372;43.514;1.512;2024-01-27T14:23:58;6.63;;;5.22;;
81908;SDS011;71372;43.514;1.512;2024-01-27T14:26:28;7.43;;;4.88;;
81908;SDS011;71372;43.514;1.512;2024-01-27T14:28:55;8.05;;;5.20;;
81908;SDS011;71372;43.514;1.512;2024-01-27T14:31:21;8.27;;;6.05;;
81908;SDS011;71372;43.514;1.512;2024-01-27T14:33:47;7.35;;;5.70;;
81908;SDS011;71372;43.514;1.512;2024-01-27T14:36:14;7.80;;;5.75;;
81908;SDS011;71372;43.514;1.512;2024-01-27T14:38:40;6.13;;;5.22;;
81908;SDS011;71372;43.514;1.512;2024-01-27T14:41:07;9.38;;;5.85;;
81908;SDS011;71372;43.514;1.512;2024-01-27T14:43:33;10.30;;;6.05;;